メインページ
METAR-TAF:

METAR-TAF

空港 :

オスロ空港

オスロ, ノルウェー

緯度: 60-12N, 経度: 011-05E, 海抜: 208m

現時点の気象観測

当レポートは32分前の05:20(UTC)に作成
西/南西の風 6kt、南/南西から西の間で変化する
気温 5°C
湿度 56%
気圧 1011 hPa
視程10km以上
1,500メートル以下は雲なし、積乱雲なし

METAR: ENGM 220520Z 24006KT 200V280 CAVOK 05/M03 Q1011 NOSIG

時間: 07:52 (05:52 UTC)

予報

予報は22日の 00時(UTC)から 22日の 24時(UTC)まで有効
南西の風 8kt
視程10km以上
1,500メートル以下は雲なし、積乱雲なし
確率 30% :
22日の 09時(UTC)から 22日の 15時(UTC)まで一時的に
西/南西の風 15kt、最大25ktの突風を伴う
22日の 21時(UTC)から 22日の 23時(UTC)まで徐々に
高度1200ftの千切れ雲あり

TAF: ENGM 2200/2224 23008KT CAVOK PROB30 TEMPO 2209/2215 24015G25KT BECMG 2221/2223 BKN012

4,000以上の空港の気象観測と天気予報(METAR報とTAF報)

利用可能な観測所は地図上に黄色い丸と赤い丸で示す。

丸の上にカーソルを重ねると観測所名を参照できる。

次にクリックすると気象観測と天気予報を参照できる。

マップの切り替え:黒色「×」印の緑ボタンをクリックして拡大、「-」印の緑ボタンをクリックして縮小、緑色の三角印をクリックして隣りの地図に切り替え


METAR-TAF: